Time;durP1;ratioP1;P1;durP2;ratioP2;P2;SDS_P1;SDS_P2;PMS_P1;PMS_P2;Temp;Humidity;BMP_temperature;BMP_pressure;BME280_temperature;BME280_humidity;BME280_pressure;Samples;Min_cycle;Max_cycle;Signal;HPM_P1;HPM_P2
2021/05/15 00:01:07;;;;;;;6.38;4.75;;;;;;;14.54;67.21;98632.57;129948;1101;22720;-67
2021/05/15 00:03:34;;;;;;;10.50;5.93;;;;;;;14.53;67.19;98632.88;129932;1101;25196;-66
2021/05/15 00:06:02;;;;;;;11.15;5.58;;;;;;;14.53;67.17;98633.69;129864;1101;23170;-69
2021/05/15 00:08:30;;;;;;;11.35;6.33;;;;;;;14.50;67.58;98642.52;129941;1101;22569;-67
2021/05/15 00:10:58;;;;;;;9.43;5.38;;;;;;;14.47;67.37;98641.19;129847;1102;22514;-69
2021/05/15 00:13:26;;;;;;;7.40;5.30;;;;;;;14.42;67.84;98632.27;129707;1101;22613;-68
2021/05/15 00:15:53;;;;;;;9.03;4.78;;;;;;;14.39;67.98;98635.59;129935;1101;22862;-69
2021/05/15 00:18:20;;;;;;;8.20;4.05;;;;;;;14.37;68.26;98641.38;129933;1101;22585;-69
2021/05/15 00:20:47;;;;;;;7.10;4.38;;;;;;;14.37;68.02;98638.63;129947;1101;22546;-69
2021/05/15 00:23:15;;;;;;;8.98;5.13;;;;;;;14.36;68.47;98636.19;129967;1101;22667;-70
2021/05/15 00:25:43;;;;;;;11.10;4.83;;;;;;;14.34;68.55;98638.41;129941;1101;22549;-69
2021/05/15 00:28:10;;;;;;;8.13;4.28;;;;;;;14.30;68.36;98632.72;130012;1101;22523;-69
2021/05/15 00:30:37;;;;;;;7.38;5.25;;;;;;;14.28;68.86;98643.20;129982;1101;22562;-69
2021/05/15 00:33:04;;;;;;;11.03;4.48;;;;;;;14.27;68.71;98641.58;130017;1101;23346;-69
2021/05/15 00:35:31;;;;;;;7.25;4.65;;;;;;;14.26;68.59;98636.39;129972;1101;22543;-67
2021/05/15 00:37:58;;;;;;;8.73;4.83;;;;;;;14.25;68.59;98637.51;130012;1101;22581;-68
2021/05/15 00:40:26;;;;;;;8.08;4.98;;;;;;;14.21;68.81;98633.74;129960;1101;22525;-68
2021/05/15 00:42:53;;;;;;;7.00;5.80;;;;;;;14.18;69.00;98635.16;130034;1101;22533;-67
2021/05/15 00:45:21;;;;;;;13.25;6.05;;;;;;;14.14;69.00;98639.61;129931;1101;22582;-67
2021/05/15 00:47:48;;;;;;;6.40;5.00;;;;;;;14.09;68.92;98642.47;130020;1101;22545;-67
2021/05/15 00:50:15;;;;;;;7.50;4.75;;;;;;;14.05;69.13;98641.44;129971;1101;23296;-67
2021/05/15 00:52:43;;;;;;;8.13;5.50;;;;;;;14.01;69.44;98637.66;129988;1101;22544;-67
2021/05/15 00:55:11;;;;;;;8.23;5.18;;;;;;;13.94;69.45;98634.52;130032;1101;22527;-67
2021/05/15 00:57:39;;;;;;;12.40;6.35;;;;;;;13.89;69.70;98634.61;130022;1101;23315;-67
2021/05/15 01:00:08;;;;;;;13.33;6.13;;;;;;;13.82;69.64;98639.67;129975;1101;22611;-66
2021/05/15 01:02:36;;;;;;;10.08;6.13;;;;;;;13.77;69.84;98638.64;129942;1101;22659;-67
2021/05/15 01:05:04;;;;;;;9.83;6.08;;;;;;;13.71;70.32;98645.30;130019;1101;22694;-67
2021/05/15 01:07:31;;;;;;;11.65;6.63;;;;;;;13.64;70.03;98644.89;129957;1101;22653;-68
2021/05/15 01:09:58;;;;;;;11.63;6.88;;;;;;;13.57;70.09;98644.45;130002;1101;23521;-67
2021/05/15 01:12:26;;;;;;;8.60;5.75;;;;;;;13.51;70.46;98647.58;129999;1101;22596;-67
2021/05/15 01:14:59;;;;;;;16.70;5.78;;;;;;;13.45;70.97;98646.84;130003;1101;22625;-67
2021/05/15 01:17:26;;;;;;;10.05;4.75;;;;;;;13.41;71.04;98654.05;129988;1101;23278;-67
2021/05/15 01:19:54;;;;;;;7.53;4.80;;;;;;;13.38;71.21;98654.63;129978;1101;22528;-67
2021/05/15 01:22:22;;;;;;;11.03;6.38;;;;;;;13.35;71.13;98649.75;129969;1101;23353;-67
2021/05/15 01:24:49;;;;;;;11.65;6.93;;;;;;;13.31;71.44;98652.25;130003;1101;23711;-67
2021/05/15 01:27:16;;;;;;;11.60;6.90;;;;;;;13.28;71.64;98655.58;129968;1101;22557;-67
2021/05/15 01:29:43;;;;;;;11.85;7.45;;;;;;;13.23;71.28;98654.86;130043;1101;22563;-67
2021/05/15 01:32:11;;;;;;;11.48;7.75;;;;;;;13.18;71.87;98654.92;129974;1101;22617;-67
2021/05/15 01:34:39;;;;;;;11.33;7.78;;;;;;;13.13;71.69;98657.72;130007;1102;22572;-67
2021/05/15 01:37:06;;;;;;;14.00;8.63;;;;;;;13.05;72.34;98651.80;130007;1101;22631;-67
2021/05/15 01:39:34;;;;;;;15.40;8.35;;;;;;;13.01;71.98;98658.14;129120;1101;24234;-66
2021/05/15 01:42:01;;;;;;;10.63;7.20;;;;;;;12.98;71.78;98658.75;129829;1101;22685;-66
2021/05/15 01:44:32;;;;;;;12.13;7.13;;;;;;;12.93;72.04;98648.69;130014;1101;22571;-66
2021/05/15 01:46:59;;;;;;;12.00;6.43;;;;;;;12.89;72.48;98657.77;130036;1101;22626;-66
2021/05/15 01:49:26;;;;;;;13.65;7.03;;;;;;;12.85;72.34;98652.06;129950;1101;22583;-66
2021/05/15 01:51:53;;;;;;;9.03;6.50;;;;;;;12.81;72.80;98650.23;130035;1101;23519;-66
2021/05/15 01:54:20;;;;;;;11.00;6.30;;;;;;;12.78;73.04;98648.08;129963;1101;22636;-66
2021/05/15 01:56:48;;;;;;;12.58;6.98;;;;;;;12.75;73.38;98650.29;129983;1101;23516;-66
2021/05/15 01:59:15;;;;;;;10.38;7.28;;;;;;;12.75;73.41;98649.47;129990;1101;23160;-66
2021/05/15 02:01:42;;;;;;;11.75;7.15;;;;;;;12.75;73.93;98649.47;130038;1101;22645;-66
2021/05/15 02:04:09;;;;;;;11.43;7.25;;;;;;;12.77;73.95;98651.92;129987;1101;23000;-67
2021/05/15 02:06:36;;;;;;;8.38;6.65;;;;;;;12.80;74.18;98654.07;129993;1101;22632;-67
2021/05/15 02:09:04;;;;;;;14.65;7.28;;;;;;;12.83;74.83;98653.48;129989;1101;22571;-67
2021/05/15 02:11:31;;;;;;;7.75;6.18;;;;;;;12.86;74.87;98656.42;130022;1101;22700;-67
2021/05/15 02:13:59;;;;;;;12.88;6.53;;;;;;;12.89;74.94;98655.84;129988;1101;22676;-67
2021/05/15 02:16:28;;;;;;;13.20;6.30;;;;;;;12.93;74.50;98654.16;130020;1101;22761;-66
2021/05/15 02:18:56;;;;;;;10.60;6.50;;;;;;;12.97;74.67;98659.86;129989;1101;23443;-67
2021/05/15 02:21:24;;;;;;;11.48;6.65;;;;;;;12.97;74.62;98665.33;130037;1101;23345;-67
2021/05/15 02:23:51;;;;;;;10.48;7.45;;;;;;;12.98;74.88;98667.77;129986;1101;23123;-67
2021/05/15 02:26:19;;;;;;;13.45;7.38;;;;;;;12.99;74.76;98674.02;130026;1101;23470;-67
2021/05/15 02:28:47;;;;;;;9.90;7.30;;;;;;;12.98;74.36;98675.16;130008;1101;23038;-67
2021/05/15 02:31:14;;;;;;;11.98;6.95;;;;;;;12.96;74.27;98669.16;129990;1101;22574;-67
2021/05/15 02:33:41;;;;;;;10.98;6.48;;;;;;;12.95;74.50;98673.00;130041;1101;22575;-67
2021/05/15 02:36:09;;;;;;;10.83;6.93;;;;;;;12.94;74.25;98676.84;129999;1101;22616;-67
2021/05/15 02:38:37;;;;;;;8.63;6.00;;;;;;;12.94;74.60;98682.31;129964;1101;22641;-68
2021/05/15 02:41:04;;;;;;;8.08;5.38;;;;;;;12.94;74.40;98687.78;126318;1101;22921;-67
2021/05/15 02:43:32;;;;;;;9.45;5.25;;;;;;;12.95;74.73;98690.23;129936;1101;23543;-66
2021/05/15 02:45:59;;;;;;;11.98;4.88;;;;;;;12.98;74.92;98692.38;129975;1101;22579;-67
2021/05/15 02:48:27;;;;;;;8.23;5.30;;;;;;;13.00;74.81;98697.52;130033;1101;22564;-67
2021/05/15 02:50:54;;;;;;;12.98;5.28;;;;;;;13.01;74.60;98705.44;129970;1101;23786;-67
2021/05/15 02:53:23;;;;;;;9.10;4.93;;;;;;;13.04;74.77;98710.33;129996;1101;22598;-67
2021/05/15 02:55:51;;;;;;;10.40;6.25;;;;;;;13.06;74.77;98707.30;130015;1101;22670;-67
2021/05/15 02:58:19;;;;;;;12.85;6.15;;;;;;;13.00;75.18;98708.47;129988;1101;22566;-68
2021/05/15 03:00:46;;;;;;;23.33;6.25;;;;;;;13.10;74.88;98719.29;129969;1101;22654;-67
2021/05/15 03:03:13;;;;;;;7.20;5.73;;;;;;;13.14;74.65;98724.96;129979;1101;23169;-67
2021/05/15 03:05:41;;;;;;;9.53;6.43;;;;;;;13.15;74.95;98711.02;129971;1101;22540;-67
2021/05/15 03:08:08;;;;;;;6.63;5.35;;;;;;;13.16;75.05;98725.52;130017;1101;22531;-67
2021/05/15 03:10:36;;;;;;;16.83;5.58;;;;;;;13.18;75.06;98720.57;129983;1101;22562;-67
2021/05/15 03:13:03;;;;;;;10.68;5.63;;;;;;;13.20;74.71;98721.09;130008;1101;22555;-67
2021/05/15 03:15:30;;;;;;;13.75;7.05;;;;;;;13.25;74.99;98721.03;130025;1101;22564;-67
2021/05/15 03:17:57;;;;;;;17.13;9.33;;;;;;;13.30;74.85;98712.73;129988;1101;22558;-68
2021/05/15 03:20:25;;;;;;;12.85;9.25;;;;;;;13.36;74.85;98714.30;130041;1101;22597;-68
2021/05/15 03:22:53;;;;;;;14.80;9.23;;;;;;;13.39;75.26;98711.80;129963;1101;22550;-68
2021/05/15 03:25:21;;;;;;;13.93;8.25;;;;;;;13.45;74.86;98713.33;130005;1101;23325;-67
2021/05/15 03:27:48;;;;;;;7.68;5.45;;;;;;;13.48;74.91;98706.45;129961;1101;22605;-68
2021/05/15 03:30:16;;;;;;;9.68;5.75;;;;;;;13.51;74.94;98719.55;130030;1101;22631;-68
2021/05/15 03:32:43;;;;;;;10.43;4.90;;;;;;;13.54;74.57;98718.15;129962;1101;23125;-68
2021/05/15 03:35:11;;;;;;;6.05;4.98;;;;;;;13.57;74.54;98721.08;130002;1101;23185;-68
2021/05/15 03:37:39;;;;;;;6.90;4.48;;;;;;;13.62;74.32;98722.94;129994;1101;22688;-68
2021/05/15 03:40:07;;;;;;;8.70;5.05;;;;;;;13.67;74.45;98731.90;130006;1101;23447;-69
2021/05/15 03:42:35;;;;;;;9.13;4.55;;;;;;;13.74;74.53;98729.58;129977;1101;22545;-69
2021/05/15 03:45:03;;;;;;;10.35;4.55;;;;;;;13.83;74.30;98731.66;129987;1101;23447;-70
2021/05/15 03:47:30;;;;;;;7.03;4.53;;;;;;;13.90;74.21;98737.55;130017;1101;22612;-69
2021/05/15 03:49:58;;;;;;;6.43;4.10;;;;;;;13.97;74.20;98738.81;130015;1101;22526;-69
2021/05/15 03:52:25;;;;;;;5.78;4.73;;;;;;;14.04;74.48;98736.48;129965;1101;22581;-70
2021/05/15 03:54:52;;;;;;;6.45;4.45;;;;;;;14.09;74.15;98730.94;130043;1101;23123;-70
2021/05/15 03:57:19;;;;;;;6.55;4.65;;;;;;;14.14;74.00;98740.97;129908;1101;23143;-70
2021/05/15 03:59:46;;;;;;;13.03;5.18;;;;;;;14.19;73.66;98738.16;129971;1101;22533;-69
2021/05/15 04:02:14;;;;;;;10.70;4.73;;;;;;;14.24;73.58;98749.03;130014;1101;24409;-70
2021/05/15 04:04:41;;;;;;;9.05;4.10;;;;;;;14.29;73.50;98745.38;129967;1101;22665;-70
2021/05/15 04:07:08;;;;;;;3.38;2.85;;;;;;;14.32;73.48;98745.59;130000;1101;22699;-70
2021/05/15 04:09:35;;;;;;;4.13;2.85;;;;;;;14.36;73.40;98745.80;129994;1101;22522;-70
2021/05/15 04:12:03;;;;;;;14.75;3.75;;;;;;;14.39;73.05;98750.69;130045;1101;22598;-70
2021/05/15 04:14:41;;;;;;;4.70;3.25;;;;;;;14.42;73.11;98747.39;129999;1101;22502;-69
2021/05/15 04:19:35;;;;;;;3.30;2.90;;;;;;;14.47;72.97;98756.31;130008;1101;22603;-69
2021/05/15 04:22:03;;;;;;;5.05;3.53;;;;;;;14.50;72.86;98750.23;130055;1101;23628;-70
2021/05/15 04:24:30;;;;;;;7.50;3.98;;;;;;;14.51;73.07;98748.30;130004;1101;22555;-69
2021/05/15 04:26:59;;;;;;;4.33;2.98;;;;;;;14.53;72.82;98748.81;130009;1101;22554;-68
2021/05/15 04:29:26;;;;;;;3.38;2.53;;;;;;;14.56;72.36;98747.41;129987;1101;22571;-68
2021/05/15 04:31:56;;;;;;;5.05;2.93;;;;;;;14.57;72.34;98752.55;129999;1101;22579;-69
2021/05/15 04:34:24;;;;;;;3.53;2.40;;;;;;;14.60;72.19;98753.88;130002;1101;22560;-69
2021/05/15 04:36:51;;;;;;;6.38;2.80;;;;;;;14.62;72.31;98751.66;129998;1101;22590;-69
2021/05/15 04:39:18;;;;;;;3.55;2.50;;;;;;;14.64;72.38;98757.66;129659;1101;22599;-67
2021/05/15 04:41:46;;;;;;;4.13;2.33;;;;;;;14.68;72.59;98758.69;129987;1101;23384;-67
2021/05/15 04:44:13;;;;;;;4.35;2.95;;;;;;;14.69;72.23;98757.57;130051;1101;23265;-67
2021/05/15 04:46:41;;;;;;;6.85;3.15;;;;;;;14.71;71.80;98758.08;130016;1101;23257;-67
2021/05/15 04:49:08;;;;;;;5.58;3.08;;;;;;;14.72;72.03;98763.23;130037;1101;22636;-67
2021/05/15 04:51:35;;;;;;;14.55;2.93;;;;;;;14.73;71.75;98764.86;130012;1101;22990;-67
2021/05/15 04:54:04;;;;;;;6.58;3.08;;;;;;;14.72;71.85;98767.91;130022;1101;22578;-67
2021/05/15 04:56:31;;;;;;;10.10;3.90;;;;;;;14.73;72.20;98769.53;129994;1101;23296;-67
2021/05/15 04:58:58;;;;;;;3.78;2.58;;;;;;;14.75;71.77;98770.05;129996;1101;22606;-67
2021/05/15 05:01:26;;;;;;;7.20;3.05;;;;;;;14.75;71.41;98770.05;129945;1101;22628;-67
2021/05/15 05:03:53;;;;;;;5.48;2.55;;;;;;;14.75;71.43;98773.60;130027;1101;22547;-67
2021/05/15 05:06:20;;;;;;;4.48;2.15;;;;;;;14.76;71.75;98772.48;130010;1101;22675;-67
2021/05/15 05:08:47;;;;;;;3.38;2.33;;;;;;;14.77;71.86;98785.09;130033;1101;22674;-67
2021/05/15 05:11:15;;;;;;;4.78;2.55;;;;;;;14.79;71.90;98788.34;129958;1101;22551;-68
2021/05/15 05:13:43;;;;;;;4.60;2.83;;;;;;;14.77;71.75;98776.05;130017;1101;23357;-67
2021/05/15 05:16:10;;;;;;;6.90;2.68;;;;;;;14.82;71.85;98787.74;129951;1101;22706;-66
2021/05/15 05:18:37;;;;;;;7.20;2.53;;;;;;;14.86;71.59;98799.70;130010;1101;22678;-67
2021/05/15 05:21:05;;;;;;;5.38;2.98;;;;;;;14.90;71.56;98797.18;129975;1101;22582;-67
2021/05/15 05:23:32;;;;;;;4.18;2.73;;;;;;;14.93;71.70;98801.25;130019;1101;22681;-68
2021/05/15 05:25:59;;;;;;;5.68;3.10;;;;;;;14.95;71.66;98796.28;129965;1101;22614;-68
2021/05/15 05:28:34;;;;;;;3.15;2.40;;;;;;;14.98;71.96;98791.00;129976;1101;22652;-67
2021/05/15 05:31:04;;;;;;;6.60;2.55;;;;;;;15.05;71.64;98796.88;129987;1101;23040;-67
2021/05/15 05:33:32;;;;;;;6.95;3.45;;;;;;;15.10;71.91;98799.53;129985;1101;22525;-68
2021/05/15 05:35:59;;;;;;;5.63;2.80;;;;;;;15.17;71.56;98797.17;130016;1101;22691;-68
2021/05/15 05:38:26;;;;;;;7.75;2.93;;;;;;;15.25;71.95;98797.59;130047;1101;23714;-68
2021/05/15 05:40:53;;;;;;;7.85;3.35;;;;;;;15.32;71.37;98797.98;130024;1101;23361;-68
2021/05/15 05:43:21;;;;;;;4.48;2.75;;;;;;;15.38;71.13;98805.81;129965;1101;22814;-68
2021/05/15 05:45:48;;;;;;;10.58;3.35;;;;;;;15.45;71.26;98806.20;130027;1101;23304;-67
2021/05/15 05:48:18;;;;;;;6.13;2.88;;;;;;;15.53;70.92;98810.98;129984;1101;22564;-68
2021/05/15 05:50:46;;;;;;;4.23;2.93;;;;;;;15.61;70.67;98811.39;130014;1101;22538;-68
2021/05/15 05:53:13;;;;;;;4.28;3.30;;;;;;;15.69;70.52;98806.00;129956;1101;22522;-68
2021/05/15 05:55:40;;;;;;;10.88;2.88;;;;;;;15.78;70.06;98814.30;130016;1101;22613;-68
2021/05/15 05:58:07;;;;;;;41.93;5.58;;;;;;;15.84;69.70;98822.14;129961;1101;22573;-68
2021/05/15 06:00:34;;;;;;;12.35;3.85;;;;;;;15.92;69.70;98817.83;130048;1101;22506;-68
2021/05/15 06:03:02;;;;;;;6.20;3.05;;;;;;;15.96;69.44;98821.59;129996;1101;23442;-68
2021/05/15 06:05:29;;;;;;;6.68;3.23;;;;;;;16.02;69.31;98814.02;130019;1101;22668;-68
2021/05/15 06:08:07;;;;;;;10.30;2.90;;;;;;;16.03;68.81;98821.95;129988;1101;22648;-69
2021/05/15 06:10:37;;;;;;;5.95;3.30;;;;;;;16.06;68.58;98817.78;130032;1101;22575;-69
2021/05/15 06:13:06;;;;;;;10.63;3.90;;;;;;;16.06;68.95;98818.59;129968;1101;23350;-70
2021/05/15 06:15:37;;;;;;;6.70;3.70;;;;;;;16.08;68.88;98821.03;130033;1101;22573;-69
2021/05/15 06:18:04;;;;;;;22.43;4.68;;;;;;;16.09;68.90;98825.41;129977;1101;22519;-69
2021/05/15 06:20:32;;;;;;;22.30;4.15;;;;;;;16.12;69.02;98828.35;130002;1101;22802;-66
2021/05/15 06:22:59;;;;;;;6.08;3.08;;;;;;;16.14;69.09;98834.35;130031;1101;23758;-70
2021/05/15 06:25:26;;;;;;;4.75;2.80;;;;;;;16.18;69.18;98820.78;129969;1101;22615;-69
2021/05/15 06:27:53;;;;;;;4.28;3.13;;;;;;;16.21;69.13;98831.97;130038;1101;22998;-67
2021/05/15 06:30:20;;;;;;;6.45;2.75;;;;;;;16.26;69.03;98829.11;129990;1101;22538;-68
2021/05/15 06:32:48;;;;;;;7.50;3.85;;;;;;;16.32;69.03;98829.77;130000;1101;23053;-68
2021/05/15 06:35:15;;;;;;;6.98;2.88;;;;;;;16.37;69.00;98837.91;129919;1101;22583;-66
2021/05/15 06:37:42;;;;;;;4.90;3.35;;;;;;;16.42;69.10;98835.05;130011;1101;22590;-67
2021/05/15 06:40:10;;;;;;;4.48;2.85;;;;;;;16.49;68.79;98831.84;129984;1101;22663;-70
2021/05/15 06:42:38;;;;;;;12.65;4.18;;;;;;;16.55;69.03;98836.09;129973;1101;22526;-69
2021/05/15 06:45:06;;;;;;;5.50;3.30;;;;;;;16.60;68.84;98842.27;129940;1101;22649;-70
2021/05/15 06:47:33;;;;;;;3.70;2.60;;;;;;;16.69;68.83;98838.80;130000;1101;22511;-69
2021/05/15 06:50:05;;;;;;;5.70;2.75;;;;;;;16.76;68.10;98839.15;129964;1101;23487;-69
2021/05/15 06:52:33;;;;;;;6.33;2.50;;;;;;;16.84;68.01;98832.89;129984;1101;22603;-71
2021/05/15 06:55:00;;;;;;;7.55;2.50;;;;;;;16.92;67.15;98838.43;130012;1101;22570;-70
2021/05/15 06:57:27;;;;;;;7.73;2.75;;;;;;;17.00;66.89;98845.13;130053;1101;23667;-69
2021/05/15 06:59:54;;;;;;;8.10;3.03;;;;;;;17.08;66.86;98844.34;129974;1101;22540;-70
2021/05/15 07:02:22;;;;;;;4.48;2.38;;;;;;;17.15;66.25;98844.70;130008;1101;22665;-70
2021/05/15 07:04:50;;;;;;;6.75;2.75;;;;;;;17.18;66.39;98835.78;130008;1101;22734;-70
2021/05/15 07:07:18;;;;;;;4.68;2.90;;;;;;;17.31;66.39;98845.09;130023;1101;23313;-70
2021/05/15 07:09:48;;;;;;;7.93;2.90;;;;;;;17.38;66.27;98844.61;130004;1101;22624;-69
2021/05/15 07:12:15;;;;;;;6.95;2.63;;;;;;;17.46;65.47;98849.32;130008;1101;22558;-70
2021/05/15 07:14:44;;;;;;;5.58;2.80;;;;;;;17.49;64.82;98851.44;129987;1101;23403;-71
2021/05/15 07:17:12;;;;;;;8.38;2.93;;;;;;;17.57;64.52;98856.19;129970;1101;22661;-70
2021/05/15 07:19:39;;;;;;;4.55;2.70;;;;;;;17.63;64.29;98852.13;130026;1101;22566;-70
2021/05/15 07:22:06;;;;;;;4.23;2.60;;;;;;;17.69;64.35;98850.89;129962;1101;22536;-70
2021/05/15 07:24:34;;;;;;;2.95;2.38;;;;;;;17.76;64.94;98850.40;129974;1101;22618;-70
2021/05/15 07:27:01;;;;;;;7.23;2.68;;;;;;;17.84;64.78;98857.89;129980;1101;22549;-69
2021/05/15 07:29:28;;;;;;;7.20;3.28;;;;;;;17.95;64.53;98859.19;130029;1101;22565;-70
2021/05/15 07:31:55;;;;;;;4.05;2.30;;;;;;;18.04;63.83;98854.48;129967;1101;22688;-70
2021/05/15 07:34:22;;;;;;;5.08;2.55;;;;;;;18.14;63.77;98853.38;130065;1101;22551;-69
2021/05/15 07:36:49;;;;;;;4.55;2.85;;;;;;;18.23;63.95;98852.23;130015;1101;22611;-70
2021/05/15 07:39:17;;;;;;;14.93;3.23;;;;;;;18.30;63.22;98858.09;129692;1101;23240;-66
2021/05/15 07:41:45;;;;;;;3.38;2.33;;;;;;;18.37;62.54;98860.34;125406;1093;22795;-66
2021/05/15 07:44:12;;;;;;;5.35;2.73;;;;;;;18.42;62.49;98860.19;129865;1101;22641;-67
2021/05/15 07:46:39;;;;;;;3.43;2.08;;;;;;;18.46;62.74;98860.35;129970;1101;22629;-67
2021/05/15 07:49:07;;;;;;;2.85;2.30;;;;;;;18.49;62.82;98860.48;129997;1101;22584;-67
2021/05/15 07:51:34;;;;;;;42.65;4.83;;;;;;;18.54;62.80;98859.52;130009;1101;22487;-67
2021/05/15 07:54:02;;;;;;;8.48;2.93;;;;;;;18.60;62.53;98855.50;130040;1101;22590;-67
2021/05/15 07:56:29;;;;;;;6.85;2.98;;;;;;;18.64;62.16;98850.92;130036;1101;22569;-67
2021/05/15 07:58:56;;;;;;;6.03;2.88;;;;;;;18.66;61.66;98852.22;129991;1101;22711;-67
2021/05/15 08:01:23;;;;;;;6.30;2.40;;;;;;;18.68;61.79;98849.95;130017;1101;22653;-68
2021/05/15 08:03:50;;;;;;;4.60;3.13;;;;;;;18.70;60.93;98855.95;129989;1101;22527;-68
2021/05/15 08:06:17;;;;;;;3.43;2.25;;;;;;;18.73;61.24;98845.41;130019;1101;23392;-69
2021/05/15 08:08:46;;;;;;;2.63;2.25;;;;;;;18.77;61.92;98849.92;129970;1101;22576;-69
2021/05/15 08:11:17;;;;;;;4.33;2.40;;;;;;;18.82;61.54;98852.52;130043;1101;22618;-69
2021/05/15 08:13:45;;;;;;;4.93;2.50;;;;;;;18.86;60.83;98856.25;130011;1101;22584;-69
2021/05/15 08:16:13;;;;;;;4.10;2.60;;;;;;;18.89;60.28;98854.78;130020;1101;22674;-72
2021/05/15 08:18:44;;;;;;;3.80;2.40;;;;;;;18.88;59.98;98855.92;129980;1101;22574;-74
2021/05/15 08:21:12;;;;;;;3.28;2.55;;;;;;;18.87;60.31;98859.82;129989;1101;22591;-73
2021/05/15 08:23:39;;;;;;;6.18;2.73;;;;;;;18.85;60.42;98859.34;129972;1101;22568;-73
2021/05/15 08:26:10;;;;;;;3.83;2.45;;;;;;;18.83;60.57;98856.90;130040;1101;22659;-73
2021/05/15 08:28:46;;;;;;;4.43;2.65;;;;;;;18.81;60.78;98856.41;129971;1101;22657;-72
2021/05/15 08:31:14;;;;;;;8.10;3.65;;;;;;;18.81;60.37;98853.65;130038;1101;22566;-72
2021/05/15 08:33:41;;;;;;;9.15;3.40;;;;;;;18.83;60.50;98859.66;129942;1101;22603;-71
2021/05/15 08:36:10;;;;;;;4.00;2.50;;;;;;;18.83;60.13;98853.33;130051;1101;22585;-72
2021/05/15 08:38:40;;;;;;;5.43;3.68;;;;;;;18.81;60.03;98864.69;129971;1101;22599;-72
2021/05/15 08:41:08;;;;;;;10.08;4.10;;;;;;;18.81;59.88;98863.88;130004;1101;22590;-69
2021/05/15 08:43:41;;;;;;;7.58;3.80;;;;;;;18.81;59.89;98856.41;130007;1101;24011;-69
2021/05/15 08:46:13;;;;;;;8.33;3.20;;;;;;;18.80;60.02;98862.26;130026;1101;22563;-69
2021/05/15 08:48:42;;;;;;;4.93;2.60;;;;;;;18.81;60.28;98869.41;130045;1101;22541;-67
2021/05/15 08:51:10;;;;;;;3.53;2.33;;;;;;;18.82;59.89;98866.31;130028;1101;22515;-68
2021/05/15 08:53:39;;;;;;;3.80;2.15;;;;;;;18.85;60.05;98865.66;130008;1101;22550;-68
2021/05/15 08:56:08;;;;;;;6.13;1.90;;;;;;;18.88;59.72;98861.44;130022;1101;22560;-69
2021/05/15 08:58:37;;;;;;;8.10;2.50;;;;;;;18.91;59.82;98867.09;130029;1101;23631;-69
2021/05/15 09:01:06;;;;;;;2.83;2.00;;;;;;;18.94;59.55;98865.63;129989;1101;23171;-69
2021/05/15 09:03:33;;;;;;;5.65;2.50;;;;;;;18.95;59.38;98865.30;129955;1101;22535;-68
2021/05/15 09:06:02;;;;;;;3.55;2.35;;;;;;;18.96;59.25;98866.93;129973;1101;22595;-69
2021/05/15 09:08:30;;;;;;;28.08;4.18;;;;;;;18.99;59.62;98865.47;130065;1101;22580;-69
2021/05/15 09:10:59;;;;;;;8.75;2.30;;;;;;;19.02;59.71;98867.58;130017;1101;22547;-69
2021/05/15 09:13:30;;;;;;;17.30;2.23;;;;;;;19.08;59.12;98867.05;130014;1101;22569;-68
2021/05/15 09:16:04;;;;;;;10.30;2.38;;;;;;;19.14;58.86;98867.69;129987;1101;22667;-70
2021/05/15 09:18:40;;;;;;;3.20;1.80;;;;;;;19.18;58.05;98865.90;129977;1101;22691;-69
2021/05/15 09:21:11;;;;;;;14.18;2.30;;;;;;;19.19;57.75;98867.49;130010;1101;22530;-70
2021/05/15 09:23:42;;;;;;;4.43;2.13;;;;;;;19.19;57.53;98872.23;130023;1101;22602;-70
2021/05/15 09:26:15;;;;;;;4.43;2.20;;;;;;;19.17;57.52;98863.47;130015;1101;23786;-70
2021/05/15 09:28:50;;;;;;;3.70;2.25;;;;;;;19.13;57.25;98870.78;130012;1101;22564;-70
2021/05/15 09:31:29;;;;;;;21.70;3.28;;;;;;;19.09;56.48;98878.91;129968;1101;23637;-70
2021/05/15 09:35:25;;;;;;;2.98;1.68;;;;;;;18.99;56.64;98879.27;125618;1092;24330;-69
2021/05/15 09:37:54;;;;;;;21.35;3.55;;;;;;;18.97;56.69;98876.02;125380;1102;23002;-70
2021/05/15 09:40:26;;;;;;;8.63;3.08;;;;;;;18.93;57.25;98883.33;125403;1104;22827;-66
2021/05/15 09:43:09;;;;;;;12.10;4.23;;;;;;;18.90;57.52;98887.55;129727;1101;22672;-66
2021/05/15 09:45:38;;;;;;;9.95;2.85;;;;;;;18.88;57.59;98884.34;129732;1103;22556;-66
2021/05/15 09:48:09;;;;;;;9.15;3.30;;;;;;;18.87;57.89;98887.42;129764;1101;22585;-66
2021/05/15 09:50:40;;;;;;;13.28;4.25;;;;;;;18.85;58.00;98882.23;129680;1104;22838;-66
2021/05/15 09:53:16;;;;;;;4.43;2.48;;;;;;;18.87;58.64;98891.00;129642;1104;23282;-66
2021/05/15 09:55:56;;;;;;;4.38;2.48;;;;;;;18.86;58.35;98886.61;129754;1101;22724;-64
2021/05/15 09:58:25;;;;;;;4.63;3.40;;;;;;;18.85;58.54;98890.51;129619;1103;22579;-64
2021/05/15 10:00:55;;;;;;;7.13;2.17;;;;;;;18.82;58.07;98901.38;129749;1102;23747;-63
2021/05/15 10:03:27;;;;;;;4.45;1.90;;;;;;;18.73;55.59;98901.41;129673;1102;22594;-63
2021/05/15 10:06:04;;;;;;;17.43;3.73;;;;;;;18.63;56.12;98901.73;129738;1103;22606;-64
2021/05/15 10:08:34;;;;;;;6.15;2.30;;;;;;;18.53;57.17;98908.36;129668;1102;23019;-64
2021/05/15 10:11:05;;;;;;;9.70;3.28;;;;;;;18.42;58.60;98906.27;129753;1101;23128;-64
2021/05/15 10:13:35;;;;;;;9.38;3.70;;;;;;;18.36;60.26;98914.69;129751;1102;22689;-64
2021/05/15 10:16:04;;;;;;;5.10;3.43;;;;;;;18.34;61.78;98916.95;129693;1103;22631;-64
2021/05/15 10:18:38;;;;;;;7.93;3.28;;;;;;;18.33;61.53;98920.03;129695;1102;23491;-64
2021/05/15 10:21:06;;;;;;;5.25;3.40;;;;;;;18.29;60.84;98921.84;129860;1101;23584;-64
2021/05/15 10:23:37;;;;;;;4.00;3.33;;;;;;;18.24;61.58;98921.98;129669;1102;22566;-64
2021/05/15 10:26:08;;;;;;;6.90;3.05;;;;;;;18.21;61.62;98922.63;129648;1103;22655;-64
2021/05/15 10:28:37;;;;;;;2.40;1.93;;;;;;;18.17;60.00;98910.64;129754;1102;22571;-64
2021/05/15 10:31:07;;;;;;;2.45;1.60;;;;;;;18.15;59.24;98913.72;129794;1101;22623;-63
2021/05/15 10:33:36;;;;;;;2.20;2.00;;;;;;;18.20;59.45;98916.30;129731;1102;22679;-64
2021/05/15 10:36:06;;;;;;;3.08;2.08;;;;;;;18.25;59.35;98923.61;129743;1101;22594;-63
2021/05/15 10:38:38;;;;;;;2.88;2.20;;;;;;;18.26;59.41;98911.45;129772;1101;22631;-63
2021/05/15 10:41:10;;;;;;;4.78;2.55;;;;;;;18.27;59.54;98913.07;126088;1103;22780;-62
2021/05/15 10:43:40;;;;;;;4.98;2.10;;;;;;;18.27;59.09;98908.37;129722;1101;22622;-63
2021/05/15 10:46:19;;;;;;;6.30;2.53;;;;;;;18.29;59.31;98908.86;129769;1103;22596;-63
2021/05/15 10:49:09;;;;;;;3.60;2.20;;;;;;;18.32;59.52;98918.44;129718;1101;23471;-64
2021/05/15 10:51:44;;;;;;;3.78;2.25;;;;;;;18.35;59.80;98920.53;129771;1101;22610;-64
2021/05/15 10:54:15;;;;;;;10.03;2.37;;;;;;;18.37;59.89;98954.92;129693;1101;23385;-63
2021/05/15 10:56:50;;;;;;;9.43;2.40;;;;;;;18.33;60.29;98962.22;129815;1102;22659;-64
2021/05/15 10:59:20;;;;;;;15.13;2.35;;;;;;;18.20;60.88;98973.39;129748;1101;22549;-64
2021/05/15 11:01:53;;;;;;;8.85;2.48;;;;;;;17.98;61.27;98975.14;129775;1101;23359;-63
2021/05/15 11:04:30;;;;;;;8.13;4.30;;;;;;;17.74;63.06;98988.52;129686;1102;23765;-62
2021/05/15 11:07:01;;;;;;;13.13;3.98;;;;;;;17.50;64.62;98972.32;129721;1104;23915;-66
2021/05/15 11:09:32;;;;;;;8.73;3.40;;;;;;;17.20;64.77;98964.87;129644;1104;23219;-65
2021/05/15 11:12:15;;;;;;;8.33;2.60;;;;;;;16.89;64.69;98953.81;129695;1103;23851;-66
2021/05/15 11:14:44;;;;;;;7.55;2.03;;;;;;;16.60;65.83;98945.96;129712;1103;22572;-67
2021/05/15 11:17:26;;;;;;;4.60;2.03;;;;;;;16.41;67.21;98953.59;129716;1102;22605;-67
2021/05/15 11:19:59;;;;;;;2.48;1.53;;;;;;;16.34;68.93;98950.44;129682;1103;22695;-67
2021/05/15 11:22:50;;;;;;;2.78;1.30;;;;;;;16.32;68.00;98944.42;129738;1101;22718;-67
2021/05/15 11:25:28;;;;;;;1.30;1.10;;;;;;;16.32;68.80;98944.42;129709;1104;22634;-64
2021/05/15 11:27:57;;;;;;;1.40;1.30;;;;;;;16.38;69.39;98943.20;129697;1103;22624;-64
2021/05/15 11:30:32;;;;;;;2.63;1.13;;;;;;;16.47;69.82;98944.08;129640;1104;22659;-64
2021/05/15 11:33:04;;;;;;;2.03;1.60;;;;;;;16.59;71.31;98934.14;129719;1103;22544;-64